sensor_id;sensor_type;location;lat;lon;timestamp;P1;durP1;ratioP1;P2;durP2;ratioP2
21128;SDS011;10722;51.910;8.352;2023-02-28T00:02:29;16.10;;;5.73;;
21128;SDS011;10722;51.910;8.352;2023-02-28T00:05:16;13.53;;;5.90;;
21128;SDS011;10722;51.910;8.352;2023-02-28T00:08:03;14.50;;;5.00;;
21128;SDS011;10722;51.910;8.352;2023-02-28T00:10:49;12.87;;;5.13;;
21128;SDS011;10722;51.910;8.352;2023-02-28T00:13:35;15.60;;;5.37;;
21128;SDS011;10722;51.910;8.352;2023-02-28T00:16:23;14.87;;;5.57;;
21128;SDS011;10722;51.910;8.352;2023-02-28T00:19:08;18.13;;;5.60;;
21128;SDS011;10722;51.910;8.352;2023-02-28T00:21:54;16.10;;;6.20;;
21128;SDS011;10722;51.910;8.352;2023-02-28T00:24:39;16.37;;;5.77;;
21128;SDS011;10722;51.910;8.352;2023-02-28T00:27:24;15.47;;;5.97;;
21128;SDS011;10722;51.910;8.352;2023-02-28T00:30:13;17.33;;;6.63;;
21128;SDS011;10722;51.910;8.352;2023-02-28T00:33:03;16.10;;;6.57;;
21128;SDS011;10722;51.910;8.352;2023-02-28T00:35:48;17.23;;;6.77;;
21128;SDS011;10722;51.910;8.352;2023-02-28T00:38:33;16.57;;;6.90;;
21128;SDS011;10722;51.910;8.352;2023-02-28T00:41:19;18.30;;;7.33;;
21128;SDS011;10722;51.910;8.352;2023-02-28T00:44:04;17.97;;;7.57;;
21128;SDS011;10722;51.910;8.352;2023-02-28T00:46:49;18.80;;;7.60;;
21128;SDS011;10722;51.910;8.352;2023-02-28T00:49:35;19.10;;;7.30;;
21128;SDS011;10722;51.910;8.352;2023-02-28T00:52:20;16.87;;;6.77;;
21128;SDS011;10722;51.910;8.352;2023-02-28T00:55:05;18.60;;;7.13;;
21128;SDS011;10722;51.910;8.352;2023-02-28T00:57:50;17.80;;;6.53;;
21128;SDS011;10722;51.910;8.352;2023-02-28T01:00:35;17.90;;;6.70;;
21128;SDS011;10722;51.910;8.352;2023-02-28T01:03:23;16.93;;;6.67;;
21128;SDS011;10722;51.910;8.352;2023-02-28T01:06:08;16.50;;;6.43;;
21128;SDS011;10722;51.910;8.352;2023-02-28T01:08:54;15.93;;;6.40;;
21128;SDS011;10722;51.910;8.352;2023-02-28T01:11:39;16.63;;;7.10;;
21128;SDS011;10722;51.910;8.352;2023-02-28T01:14:24;17.13;;;6.77;;
21128;SDS011;10722;51.910;8.352;2023-02-28T01:17:09;17.43;;;6.90;;
21128;SDS011;10722;51.910;8.352;2023-02-28T01:19:54;17.67;;;7.03;;
21128;SDS011;10722;51.910;8.352;2023-02-28T01:22:40;18.40;;;7.17;;
21128;SDS011;10722;51.910;8.352;2023-02-28T01:25:25;18.23;;;7.20;;
21128;SDS011;10722;51.910;8.352;2023-02-28T01:28:10;18.27;;;7.23;;
21128;SDS011;10722;51.910;8.352;2023-02-28T01:30:56;17.97;;;6.80;;
21128;SDS011;10722;51.910;8.352;2023-02-28T01:33:41;16.70;;;7.07;;
21128;SDS011;10722;51.910;8.352;2023-02-28T01:36:26;19.30;;;7.33;;
21128;SDS011;10722;51.910;8.352;2023-02-28T01:39:12;17.00;;;6.90;;
21128;SDS011;10722;51.910;8.352;2023-02-28T01:41:57;17.50;;;6.97;;
21128;SDS011;10722;51.910;8.352;2023-02-28T01:47:50;15.60;;;6.63;;
21128;SDS011;10722;51.910;8.352;2023-02-28T01:50:40;16.97;;;7.00;;
21128;SDS011;10722;51.910;8.352;2023-02-28T01:53:32;19.07;;;6.93;;
21128;SDS011;10722;51.910;8.352;2023-02-28T01:56:24;15.70;;;6.30;;
21128;SDS011;10722;51.910;8.352;2023-02-28T01:59:14;19.53;;;7.10;;
21128;SDS011;10722;51.910;8.352;2023-02-28T02:02:10;16.70;;;6.30;;
21128;SDS011;10722;51.910;8.352;2023-02-28T02:05:00;17.33;;;6.73;;
21128;SDS011;10722;51.910;8.352;2023-02-28T02:07:51;15.40;;;6.17;;
21128;SDS011;10722;51.910;8.352;2023-02-28T02:10:41;19.17;;;6.77;;
21128;SDS011;10722;51.910;8.352;2023-02-28T02:32:58;16.87;;;7.47;;
21128;SDS011;10722;51.910;8.352;2023-02-28T02:44:17;17.97;;;6.97;;
21128;SDS011;10722;51.910;8.352;2023-02-28T02:47:10;17.70;;;6.90;;
21128;SDS011;10722;51.910;8.352;2023-02-28T02:50:01;15.67;;;7.30;;
21128;SDS011;10722;51.910;8.352;2023-02-28T02:52:51;15.87;;;7.40;;
21128;SDS011;10722;51.910;8.352;2023-02-28T02:55:41;18.07;;;7.47;;
21128;SDS011;10722;51.910;8.352;2023-02-28T02:58:30;19.00;;;7.23;;
21128;SDS011;10722;51.910;8.352;2023-02-28T03:01:19;15.67;;;6.77;;
21128;SDS011;10722;51.910;8.352;2023-02-28T03:04:08;16.50;;;6.90;;
21128;SDS011;10722;51.910;8.352;2023-02-28T03:06:57;16.00;;;6.83;;
21128;SDS011;10722;51.910;8.352;2023-02-28T03:09:53;18.53;;;7.30;;
21128;SDS011;10722;51.910;8.352;2023-02-28T03:12:40;17.17;;;6.67;;
21128;SDS011;10722;51.910;8.352;2023-02-28T03:15:39;17.67;;;7.90;;
21128;SDS011;10722;51.910;8.352;2023-02-28T03:25:53;18.17;;;7.13;;
21128;SDS011;10722;51.910;8.352;2023-02-28T03:28:48;16.07;;;6.90;;
21128;SDS011;10722;51.910;8.352;2023-02-28T03:31:41;17.00;;;7.27;;
21128;SDS011;10722;51.910;8.352;2023-02-28T03:34:33;17.67;;;7.27;;
21128;SDS011;10722;51.910;8.352;2023-02-28T03:37:23;18.00;;;7.23;;
21128;SDS011;10722;51.910;8.352;2023-02-28T03:40:13;15.90;;;6.80;;
21128;SDS011;10722;51.910;8.352;2023-02-28T03:43:03;15.30;;;6.80;;
21128;SDS011;10722;51.910;8.352;2023-02-28T03:45:54;18.93;;;7.40;;
21128;SDS011;10722;51.910;8.352;2023-02-28T03:48:45;18.50;;;7.60;;
21128;SDS011;10722;51.910;8.352;2023-02-28T03:51:46;17.73;;;7.40;;
21128;SDS011;10722;51.910;8.352;2023-02-28T03:54:41;17.13;;;7.57;;
21128;SDS011;10722;51.910;8.352;2023-02-28T04:00:27;17.90;;;6.60;;
21128;SDS011;10722;51.910;8.352;2023-02-28T04:03:16;17.57;;;6.93;;
21128;SDS011;10722;51.910;8.352;2023-02-28T04:06:02;19.17;;;7.60;;
21128;SDS011;10722;51.910;8.352;2023-02-28T04:08:48;19.47;;;7.93;;
21128;SDS011;10722;51.910;8.352;2023-02-28T04:11:38;16.33;;;7.53;;
21128;SDS011;10722;51.910;8.352;2023-02-28T04:14:26;19.03;;;7.37;;
21128;SDS011;10722;51.910;8.352;2023-02-28T04:17:12;16.83;;;7.40;;
21128;SDS011;10722;51.910;8.352;2023-02-28T04:19:57;17.70;;;7.63;;
21128;SDS011;10722;51.910;8.352;2023-02-28T04:22:41;16.60;;;6.73;;
21128;SDS011;10722;51.910;8.352;2023-02-28T04:25:26;15.57;;;7.20;;
21128;SDS011;10722;51.910;8.352;2023-02-28T04:28:12;15.73;;;7.10;;
21128;SDS011;10722;51.910;8.352;2023-02-28T04:30:57;15.93;;;7.30;;
21128;SDS011;10722;51.910;8.352;2023-02-28T04:33:44;18.50;;;7.33;;
21128;SDS011;10722;51.910;8.352;2023-02-28T04:36:29;17.43;;;6.80;;
21128;SDS011;10722;51.910;8.352;2023-02-28T04:39:15;16.10;;;6.73;;
21128;SDS011;10722;51.910;8.352;2023-02-28T04:42:03;16.97;;;7.20;;
21128;SDS011;10722;51.910;8.352;2023-02-28T04:44:48;18.23;;;7.37;;
21128;SDS011;10722;51.910;8.352;2023-02-28T04:47:33;16.07;;;7.13;;
21128;SDS011;10722;51.910;8.352;2023-02-28T04:50:19;17.90;;;7.00;;
21128;SDS011;10722;51.910;8.352;2023-02-28T04:53:04;16.30;;;7.80;;
21128;SDS011;10722;51.910;8.352;2023-02-28T04:55:49;19.20;;;7.53;;
21128;SDS011;10722;51.910;8.352;2023-02-28T04:58:34;18.77;;;7.73;;
21128;SDS011;10722;51.910;8.352;2023-02-28T05:04:04;20.93;;;9.07;;
21128;SDS011;10722;51.910;8.352;2023-02-28T05:06:49;17.93;;;7.93;;
21128;SDS011;10722;51.910;8.352;2023-02-28T05:09:35;18.73;;;8.17;;
21128;SDS011;10722;51.910;8.352;2023-02-28T05:12:20;18.07;;;7.90;;
21128;SDS011;10722;51.910;8.352;2023-02-28T05:15:05;16.77;;;7.63;;
21128;SDS011;10722;51.910;8.352;2023-02-28T05:17:50;17.50;;;7.60;;
21128;SDS011;10722;51.910;8.352;2023-02-28T05:20:35;17.63;;;8.20;;
21128;SDS011;10722;51.910;8.352;2023-02-28T05:23:21;19.77;;;7.90;;
21128;SDS011;10722;51.910;8.352;2023-02-28T05:26:07;19.67;;;7.90;;
21128;SDS011;10722;51.910;8.352;2023-02-28T05:28:52;19.37;;;7.90;;
21128;SDS011;10722;51.910;8.352;2023-02-28T05:31:38;18.13;;;7.90;;
21128;SDS011;10722;51.910;8.352;2023-02-28T05:34:23;18.23;;;7.20;;
21128;SDS011;10722;51.910;8.352;2023-02-28T05:37:10;17.70;;;7.57;;
21128;SDS011;10722;51.910;8.352;2023-02-28T05:39:57;18.67;;;7.23;;
21128;SDS011;10722;51.910;8.352;2023-02-28T05:42:42;16.93;;;7.27;;
21128;SDS011;10722;51.910;8.352;2023-02-28T05:45:27;17.53;;;7.40;;
21128;SDS011;10722;51.910;8.352;2023-02-28T05:48:13;17.57;;;7.80;;
21128;SDS011;10722;51.910;8.352;2023-02-28T05:50:58;19.63;;;7.80;;
21128;SDS011;10722;51.910;8.352;2023-02-28T05:53:43;19.40;;;7.83;;
21128;SDS011;10722;51.910;8.352;2023-02-28T05:56:28;18.27;;;7.93;;
21128;SDS011;10722;51.910;8.352;2023-02-28T05:59:14;21.73;;;7.57;;
21128;SDS011;10722;51.910;8.352;2023-02-28T06:01:59;20.90;;;8.57;;
21128;SDS011;10722;51.910;8.352;2023-02-28T06:04:44;19.63;;;8.07;;
21128;SDS011;10722;51.910;8.352;2023-02-28T06:07:30;17.17;;;8.20;;
21128;SDS011;10722;51.910;8.352;2023-02-28T06:10:15;19.03;;;8.40;;
21128;SDS011;10722;51.910;8.352;2023-02-28T06:13:01;19.17;;;8.70;;
21128;SDS011;10722;51.910;8.352;2023-02-28T06:15:47;17.10;;;7.77;;
21128;SDS011;10722;51.910;8.352;2023-02-28T06:18:33;21.30;;;9.07;;
21128;SDS011;10722;51.910;8.352;2023-02-28T06:21:18;19.63;;;8.53;;
21128;SDS011;10722;51.910;8.352;2023-02-28T06:24:04;17.37;;;8.10;;
21128;SDS011;10722;51.910;8.352;2023-02-28T06:26:49;19.07;;;8.57;;
21128;SDS011;10722;51.910;8.352;2023-02-28T06:29:35;21.77;;;9.07;;
21128;SDS011;10722;51.910;8.352;2023-02-28T06:32:21;20.10;;;9.37;;
21128;SDS011;10722;51.910;8.352;2023-02-28T06:35:07;19.40;;;7.87;;
21128;SDS011;10722;51.910;8.352;2023-02-28T06:37:52;18.20;;;8.90;;
21128;SDS011;10722;51.910;8.352;2023-02-28T06:40:38;20.10;;;9.23;;
21128;SDS011;10722;51.910;8.352;2023-02-28T06:43:24;25.37;;;8.07;;
21128;SDS011;10722;51.910;8.352;2023-02-28T06:46:14;17.67;;;7.63;;
21128;SDS011;10722;51.910;8.352;2023-02-28T06:48:59;17.93;;;7.30;;
21128;SDS011;10722;51.910;8.352;2023-02-28T06:51:44;16.53;;;7.03;;
21128;SDS011;10722;51.910;8.352;2023-02-28T06:54:29;18.97;;;7.00;;
21128;SDS011;10722;51.910;8.352;2023-02-28T06:57:15;16.53;;;6.50;;
21128;SDS011;10722;51.910;8.352;2023-02-28T07:00:01;17.90;;;7.07;;
21128;SDS011;10722;51.910;8.352;2023-02-28T07:02:49;17.17;;;7.00;;
21128;SDS011;10722;51.910;8.352;2023-02-28T07:05:37;17.57;;;6.97;;
21128;SDS011;10722;51.910;8.352;2023-02-28T07:08:23;15.00;;;6.80;;
21128;SDS011;10722;51.910;8.352;2023-02-28T07:11:09;18.37;;;7.63;;
21128;SDS011;10722;51.910;8.352;2023-02-28T07:13:55;17.77;;;7.30;;
21128;SDS011;10722;51.910;8.352;2023-02-28T07:16:41;19.63;;;7.50;;
21128;SDS011;10722;51.910;8.352;2023-02-28T07:19:26;17.30;;;7.40;;
21128;SDS011;10722;51.910;8.352;2023-02-28T07:22:11;18.33;;;7.20;;
21128;SDS011;10722;51.910;8.352;2023-02-28T07:24:59;18.27;;;6.83;;
21128;SDS011;10722;51.910;8.352;2023-02-28T07:27:44;17.70;;;6.87;;
21128;SDS011;10722;51.910;8.352;2023-02-28T07:30:30;20.23;;;8.53;;
21128;SDS011;10722;51.910;8.352;2023-02-28T07:33:15;17.57;;;7.77;;
21128;SDS011;10722;51.910;8.352;2023-02-28T07:36:02;17.07;;;7.40;;
21128;SDS011;10722;51.910;8.352;2023-02-28T07:38:48;16.23;;;7.10;;
21128;SDS011;10722;51.910;8.352;2023-02-28T07:41:34;16.83;;;7.70;;
21128;SDS011;10722;51.910;8.352;2023-02-28T07:44:19;20.13;;;7.07;;
21128;SDS011;10722;51.910;8.352;2023-02-28T07:47:04;17.53;;;7.67;;
21128;SDS011;10722;51.910;8.352;2023-02-28T07:49:50;18.80;;;7.50;;
21128;SDS011;10722;51.910;8.352;2023-02-28T07:52:38;19.93;;;7.00;;
21128;SDS011;10722;51.910;8.352;2023-02-28T07:55:23;17.87;;;7.40;;
21128;SDS011;10722;51.910;8.352;2023-02-28T07:58:08;17.70;;;6.77;;
21128;SDS011;10722;51.910;8.352;2023-02-28T08:00:57;17.80;;;7.63;;
21128;SDS011;10722;51.910;8.352;2023-02-28T08:03:49;15.70;;;7.23;;
21128;SDS011;10722;51.910;8.352;2023-02-28T08:06:34;15.93;;;6.83;;
21128;SDS011;10722;51.910;8.352;2023-02-28T08:09:19;18.30;;;7.30;;
21128;SDS011;10722;51.910;8.352;2023-02-28T08:12:05;16.10;;;6.60;;
21128;SDS011;10722;51.910;8.352;2023-02-28T08:14:52;17.20;;;7.03;;
21128;SDS011;10722;51.910;8.352;2023-02-28T08:17:37;16.60;;;6.47;;
21128;SDS011;10722;51.910;8.352;2023-02-28T08:20:23;21.70;;;8.53;;
21128;SDS011;10722;51.910;8.352;2023-02-28T08:23:09;20.80;;;7.20;;
21128;SDS011;10722;51.910;8.352;2023-02-28T08:25:55;15.87;;;5.70;;
21128;SDS011;10722;51.910;8.352;2023-02-28T08:28:41;17.60;;;6.07;;
21128;SDS011;10722;51.910;8.352;2023-02-28T08:31:26;15.53;;;5.10;;
21128;SDS011;10722;51.910;8.352;2023-02-28T08:34:13;14.23;;;4.73;;
21128;SDS011;10722;51.910;8.352;2023-02-28T08:36:59;15.90;;;4.70;;
21128;SDS011;10722;51.910;8.352;2023-02-28T08:39:44;16.50;;;4.57;;
21128;SDS011;10722;51.910;8.352;2023-02-28T08:42:30;13.70;;;4.77;;
21128;SDS011;10722;51.910;8.352;2023-02-28T08:45:17;13.70;;;4.30;;
21128;SDS011;10722;51.910;8.352;2023-02-28T08:48:02;11.03;;;3.70;;
21128;SDS011;10722;51.910;8.352;2023-02-28T08:51:04;16.00;;;6.80;;
21128;SDS011;10722;51.910;8.352;2023-02-28T08:53:53;13.00;;;4.57;;
21128;SDS011;10722;51.910;8.352;2023-02-28T08:56:39;11.47;;;3.60;;
21128;SDS011;10722;51.910;8.352;2023-02-28T08:59:25;12.97;;;3.90;;
21128;SDS011;10722;51.910;8.352;2023-02-28T09:02:12;11.03;;;3.10;;
21128;SDS011;10722;51.910;8.352;2023-02-28T09:04:58;9.40;;;2.60;;
21128;SDS011;10722;51.910;8.352;2023-02-28T09:07:43;10.20;;;2.60;;
21128;SDS011;10722;51.910;8.352;2023-02-28T09:10:28;7.27;;;2.47;;
21128;SDS011;10722;51.910;8.352;2023-02-28T09:13:13;6.87;;;2.30;;
21128;SDS011;10722;51.910;8.352;2023-02-28T09:15:59;9.20;;;2.60;;
21128;SDS011;10722;51.910;8.352;2023-02-28T09:18:46;8.53;;;2.50;;
21128;SDS011;10722;51.910;8.352;2023-02-28T09:21:32;9.20;;;2.37;;
21128;SDS011;10722;51.910;8.352;2023-02-28T09:24:17;6.93;;;2.47;;
21128;SDS011;10722;51.910;8.352;2023-02-28T09:27:03;5.10;;;2.10;;
21128;SDS011;10722;51.910;8.352;2023-02-28T09:29:49;8.30;;;2.37;;
21128;SDS011;10722;51.910;8.352;2023-02-28T09:32:35;8.90;;;2.73;;
21128;SDS011;10722;51.910;8.352;2023-02-28T09:35:20;8.70;;;2.87;;
21128;SDS011;10722;51.910;8.352;2023-02-28T09:38:06;11.33;;;3.50;;
21128;SDS011;10722;51.910;8.352;2023-02-28T09:40:53;10.33;;;2.90;;
21128;SDS011;10722;51.910;8.352;2023-02-28T09:43:43;6.80;;;2.40;;
21128;SDS011;10722;51.910;8.352;2023-02-28T09:46:39;8.67;;;2.70;;
21128;SDS011;10722;51.910;8.352;2023-02-28T09:49:39;8.57;;;2.50;;
21128;SDS011;10722;51.910;8.352;2023-02-28T09:52:30;8.70;;;2.77;;
21128;SDS011;10722;51.910;8.352;2023-02-28T09:58:38;11.50;;;3.50;;
21128;SDS011;10722;51.910;8.352;2023-02-28T10:01:37;10.10;;;3.00;;
21128;SDS011;10722;51.910;8.352;2023-02-28T10:04:34;9.40;;;2.50;;
21128;SDS011;10722;51.910;8.352;2023-02-28T10:11:06;8.60;;;2.50;;
21128;SDS011;10722;51.910;8.352;2023-02-28T10:14:00;10.40;;;2.83;;
21128;SDS011;10722;51.910;8.352;2023-02-28T10:16:54;13.27;;;4.90;;
21128;SDS011;10722;51.910;8.352;2023-02-28T10:19:48;8.30;;;2.60;;
21128;SDS011;10722;51.910;8.352;2023-02-28T10:22:44;7.10;;;2.77;;
21128;SDS011;10722;51.910;8.352;2023-02-28T10:25:38;10.30;;;2.97;;
21128;SDS011;10722;51.910;8.352;2023-02-28T10:28:24;9.97;;;3.63;;
21128;SDS011;10722;51.910;8.352;2023-02-28T10:34:02;13.00;;;4.50;;
21128;SDS011;10722;51.910;8.352;2023-02-28T10:36:47;12.23;;;4.20;;
21128;SDS011;10722;51.910;8.352;2023-02-28T10:39:34;11.17;;;3.53;;
21128;SDS011;10722;51.910;8.352;2023-02-28T10:42:30;6.20;;;2.60;;
21128;SDS011;10722;51.910;8.352;2023-02-28T10:45:16;8.37;;;2.97;;
21128;SDS011;10722;51.910;8.352;2023-02-28T10:51:00;9.23;;;3.10;;
21128;SDS011;10722;51.910;8.352;2023-02-28T10:53:49;9.10;;;2.70;;
21128;SDS011;10722;51.910;8.352;2023-02-28T10:56:45;7.20;;;2.57;;
21128;SDS011;10722;51.910;8.352;2023-02-28T10:59:30;5.30;;;2.47;;
21128;SDS011;10722;51.910;8.352;2023-02-28T11:02:33;9.37;;;3.17;;
21128;SDS011;10722;51.910;8.352;2023-02-28T11:05:25;8.93;;;2.90;;
21128;SDS011;10722;51.910;8.352;2023-02-28T11:08:15;10.77;;;2.87;;
21128;SDS011;10722;51.910;8.352;2023-02-28T11:11:03;8.47;;;3.03;;
21128;SDS011;10722;51.910;8.352;2023-02-28T11:13:51;9.97;;;2.87;;
21128;SDS011;10722;51.910;8.352;2023-02-28T11:16:39;9.57;;;2.70;;
21128;SDS011;10722;51.910;8.352;2023-02-28T11:19:38;7.83;;;2.70;;
21128;SDS011;10722;51.910;8.352;2023-02-28T11:22:30;7.47;;;2.43;;
21128;SDS011;10722;51.910;8.352;2023-02-28T11:25:28;10.03;;;3.90;;
21128;SDS011;10722;51.910;8.352;2023-02-28T11:28:26;8.40;;;2.60;;
21128;SDS011;10722;51.910;8.352;2023-02-28T11:31:19;10.80;;;3.50;;
21128;SDS011;10722;51.910;8.352;2023-02-28T11:34:21;9.30;;;3.27;;
21128;SDS011;10722;51.910;8.352;2023-02-28T11:37:11;10.67;;;3.00;;
21128;SDS011;10722;51.910;8.352;2023-02-28T11:40:00;7.90;;;2.50;;
21128;SDS011;10722;51.910;8.352;2023-02-28T11:49:35;7.83;;;2.50;;
21128;SDS011;10722;51.910;8.352;2023-02-28T11:55:32;14.30;;;2.80;;
21128;SDS011;10722;51.910;8.352;2023-02-28T12:29:34;11.03;;;3.20;;
21128;SDS011;10722;51.910;8.352;2023-02-28T12:35:31;8.47;;;3.10;;
21128;SDS011;10722;51.910;8.352;2023-02-28T12:39:06;13.17;;;4.70;;
21128;SDS011;10722;51.910;8.352;2023-02-28T12:41:56;8.60;;;2.93;;
21128;SDS011;10722;51.910;8.352;2023-02-28T12:44:47;11.83;;;3.37;;
21128;SDS011;10722;51.910;8.352;2023-02-28T12:47:37;11.43;;;3.87;;
21128;SDS011;10722;51.910;8.352;2023-02-28T12:50:25;19.10;;;8.77;;
21128;SDS011;10722;51.910;8.352;2023-02-28T13:06:28;16.93;;;6.83;;
21128;SDS011;10722;51.910;8.352;2023-02-28T13:09:16;12.10;;;3.90;;
21128;SDS011;10722;51.910;8.352;2023-02-28T13:12:02;13.60;;;4.70;;
21128;SDS011;10722;51.910;8.352;2023-02-28T13:15:18;13.83;;;5.57;;
21128;SDS011;10722;51.910;8.352;2023-02-28T13:18:26;11.43;;;4.13;;
21128;SDS011;10722;51.910;8.352;2023-02-28T13:21:27;11.20;;;4.10;;
21128;SDS011;10722;51.910;8.352;2023-02-28T13:27:31;12.23;;;4.33;;
21128;SDS011;10722;51.910;8.352;2023-02-28T13:33:36;11.53;;;3.90;;
21128;SDS011;10722;51.910;8.352;2023-02-28T13:36:41;9.67;;;3.20;;
21128;SDS011;10722;51.910;8.352;2023-02-28T13:48:01;9.43;;;3.00;;
21128;SDS011;10722;51.910;8.352;2023-02-28T13:50:48;13.87;;;5.33;;
21128;SDS011;10722;51.910;8.352;2023-02-28T13:53:57;14.27;;;5.93;;
21128;SDS011;10722;51.910;8.352;2023-02-28T13:56:51;10.07;;;3.83;;
21128;SDS011;10722;51.910;8.352;2023-02-28T14:09:34;11.57;;;4.23;;
21128;SDS011;10722;51.910;8.352;2023-02-28T14:18:42;14.27;;;5.57;;
21128;SDS011;10722;51.910;8.352;2023-02-28T14:21:35;11.33;;;3.47;;
21128;SDS011;10722;51.910;8.352;2023-02-28T14:27:43;20.37;;;8.50;;
21128;SDS011;10722;51.910;8.352;2023-02-28T14:36:38;13.53;;;5.07;;
21128;SDS011;10722;51.910;8.352;2023-02-28T14:39:26;13.90;;;5.20;;
21128;SDS011;10722;51.910;8.352;2023-02-28T14:42:25;23.87;;;12.93;;
21128;SDS011;10722;51.910;8.352;2023-02-28T14:45:18;23.37;;;11.70;;
21128;SDS011;10722;51.910;8.352;2023-02-28T14:48:05;15.80;;;6.70;;
21128;SDS011;10722;51.910;8.352;2023-02-28T14:50:58;13.03;;;4.20;;
21128;SDS011;10722;51.910;8.352;2023-02-28T14:53:45;11.17;;;3.83;;
21128;SDS011;10722;51.910;8.352;2023-02-28T14:56:36;12.00;;;3.67;;
21128;SDS011;10722;51.910;8.352;2023-02-28T14:59:28;10.17;;;3.80;;
21128;SDS011;10722;51.910;8.352;2023-02-28T15:05:15;11.97;;;3.80;;
21128;SDS011;10722;51.910;8.352;2023-02-28T15:08:11;11.37;;;3.77;;
21128;SDS011;10722;51.910;8.352;2023-02-28T15:11:03;13.00;;;4.00;;
21128;SDS011;10722;51.910;8.352;2023-02-28T15:13:53;11.07;;;3.50;;
21128;SDS011;10722;51.910;8.352;2023-02-28T15:16:40;10.80;;;3.83;;
21128;SDS011;10722;51.910;8.352;2023-02-28T15:19:29;14.23;;;4.63;;
21128;SDS011;10722;51.910;8.352;2023-02-28T15:22:26;14.97;;;4.37;;
21128;SDS011;10722;51.910;8.352;2023-02-28T15:25:19;12.97;;;4.17;;
21128;SDS011;10722;51.910;8.352;2023-02-28T15:28:09;17.00;;;7.23;;
21128;SDS011;10722;51.910;8.352;2023-02-28T15:31:00;15.27;;;6.10;;
21128;SDS011;10722;51.910;8.352;2023-02-28T15:33:52;14.57;;;5.83;;
21128;SDS011;10722;51.910;8.352;2023-02-28T15:36:48;12.43;;;3.90;;
21128;SDS011;10722;51.910;8.352;2023-02-28T15:39:34;12.77;;;5.00;;
21128;SDS011;10722;51.910;8.352;2023-02-28T15:42:27;12.80;;;4.37;;
21128;SDS011;10722;51.910;8.352;2023-02-28T15:45:26;12.00;;;3.97;;
21128;SDS011;10722;51.910;8.352;2023-02-28T15:51:20;11.47;;;4.10;;
21128;SDS011;10722;51.910;8.352;2023-02-28T15:54:12;11.70;;;4.17;;
21128;SDS011;10722;51.910;8.352;2023-02-28T15:57:05;14.93;;;6.87;;
21128;SDS011;10722;51.910;8.352;2023-02-28T15:59:59;13.70;;;4.40;;
21128;SDS011;10722;51.910;8.352;2023-02-28T16:02:47;13.80;;;4.70;;
21128;SDS011;10722;51.910;8.352;2023-02-28T16:05:32;11.33;;;4.43;;
21128;SDS011;10722;51.910;8.352;2023-02-28T16:08:17;15.40;;;5.87;;
21128;SDS011;10722;51.910;8.352;2023-02-28T16:11:03;11.57;;;3.83;;
21128;SDS011;10722;51.910;8.352;2023-02-28T16:13:48;14.67;;;4.90;;
21128;SDS011;10722;51.910;8.352;2023-02-28T16:16:41;10.87;;;3.70;;
21128;SDS011;10722;51.910;8.352;2023-02-28T16:19:27;11.33;;;3.83;;
21128;SDS011;10722;51.910;8.352;2023-02-28T16:22:13;12.17;;;5.20;;
21128;SDS011;10722;51.910;8.352;2023-02-28T16:24:59;13.33;;;5.50;;
21128;SDS011;10722;51.910;8.352;2023-02-28T16:27:45;13.87;;;4.20;;
21128;SDS011;10722;51.910;8.352;2023-02-28T16:30:34;13.17;;;4.60;;
21128;SDS011;10722;51.910;8.352;2023-02-28T16:33:19;12.27;;;4.27;;
21128;SDS011;10722;51.910;8.352;2023-02-28T16:36:05;13.93;;;5.10;;
21128;SDS011;10722;51.910;8.352;2023-02-28T16:38:50;17.90;;;7.83;;
21128;SDS011;10722;51.910;8.352;2023-02-28T16:41:36;12.10;;;4.80;;
21128;SDS011;10722;51.910;8.352;2023-02-28T16:44:36;16.00;;;4.83;;
21128;SDS011;10722;51.910;8.352;2023-02-28T16:47:21;12.07;;;4.63;;
21128;SDS011;10722;51.910;8.352;2023-02-28T16:50:17;13.37;;;4.50;;
21128;SDS011;10722;51.910;8.352;2023-02-28T16:53:04;14.17;;;4.77;;
21128;SDS011;10722;51.910;8.352;2023-02-28T16:55:49;12.47;;;4.80;;
21128;SDS011;10722;51.910;8.352;2023-02-28T16:58:35;12.67;;;4.70;;
21128;SDS011;10722;51.910;8.352;2023-02-28T17:01:20;13.47;;;5.03;;
21128;SDS011;10722;51.910;8.352;2023-02-28T17:04:06;14.63;;;5.77;;
21128;SDS011;10722;51.910;8.352;2023-02-28T17:06:51;15.20;;;5.40;;
21128;SDS011;10722;51.910;8.352;2023-02-28T17:09:37;15.63;;;4.87;;
21128;SDS011;10722;51.910;8.352;2023-02-28T17:12:27;13.90;;;5.57;;
21128;SDS011;10722;51.910;8.352;2023-02-28T17:15:13;14.63;;;5.77;;
21128;SDS011;10722;51.910;8.352;2023-02-28T17:18:00;15.43;;;5.30;;
21128;SDS011;10722;51.910;8.352;2023-02-28T17:20:46;15.23;;;5.80;;
21128;SDS011;10722;51.910;8.352;2023-02-28T17:23:32;16.00;;;5.73;;
21128;SDS011;10722;51.910;8.352;2023-02-28T17:26:18;15.00;;;6.23;;
21128;SDS011;10722;51.910;8.352;2023-02-28T17:29:05;16.60;;;6.43;;
21128;SDS011;10722;51.910;8.352;2023-02-28T17:31:55;14.67;;;6.73;;
21128;SDS011;10722;51.910;8.352;2023-02-28T17:34:44;17.47;;;7.23;;
21128;SDS011;10722;51.910;8.352;2023-02-28T17:37:29;16.67;;;7.70;;
21128;SDS011;10722;51.910;8.352;2023-02-28T17:40:16;18.03;;;8.17;;
21128;SDS011;10722;51.910;8.352;2023-02-28T17:43:03;19.77;;;9.07;;
21128;SDS011;10722;51.910;8.352;2023-02-28T17:45:49;22.50;;;9.07;;
21128;SDS011;10722;51.910;8.352;2023-02-28T17:48:34;18.30;;;8.77;;
21128;SDS011;10722;51.910;8.352;2023-02-28T17:51:20;18.07;;;8.03;;
21128;SDS011;10722;51.910;8.352;2023-02-28T17:54:07;19.00;;;8.57;;
21128;SDS011;10722;51.910;8.352;2023-02-28T17:56:52;22.00;;;9.60;;
21128;SDS011;10722;51.910;8.352;2023-02-28T17:59:38;18.23;;;8.13;;
21128;SDS011;10722;51.910;8.352;2023-02-28T18:02:22;16.93;;;8.23;;
21128;SDS011;10722;51.910;8.352;2023-02-28T18:05:08;18.33;;;8.30;;
21128;SDS011;10722;51.910;8.352;2023-02-28T18:07:54;19.97;;;8.43;;
21128;SDS011;10722;51.910;8.352;2023-02-28T18:10:39;18.67;;;9.37;;
21128;SDS011;10722;51.910;8.352;2023-02-28T18:13:24;19.90;;;9.90;;
21128;SDS011;10722;51.910;8.352;2023-02-28T18:16:11;19.53;;;10.30;;
21128;SDS011;10722;51.910;8.352;2023-02-28T18:18:56;24.50;;;11.10;;
21128;SDS011;10722;51.910;8.352;2023-02-28T18:21:43;22.40;;;10.73;;
21128;SDS011;10722;51.910;8.352;2023-02-28T18:24:29;19.63;;;10.10;;
21128;SDS011;10722;51.910;8.352;2023-02-28T18:27:14;20.07;;;10.10;;
21128;SDS011;10722;51.910;8.352;2023-02-28T18:30:00;35.80;;;17.60;;
21128;SDS011;10722;51.910;8.352;2023-02-28T18:32:46;21.00;;;9.40;;
21128;SDS011;10722;51.910;8.352;2023-02-28T18:35:31;18.23;;;8.33;;
21128;SDS011;10722;51.910;8.352;2023-02-28T18:38:17;17.90;;;7.90;;
21128;SDS011;10722;51.910;8.352;2023-02-28T18:41:03;17.37;;;8.03;;
21128;SDS011;10722;51.910;8.352;2023-02-28T18:43:50;16.43;;;7.70;;
21128;SDS011;10722;51.910;8.352;2023-02-28T18:46:37;19.77;;;8.93;;
21128;SDS011;10722;51.910;8.352;2023-02-28T18:49:22;19.17;;;9.37;;
21128;SDS011;10722;51.910;8.352;2023-02-28T18:52:07;21.83;;;10.20;;
21128;SDS011;10722;51.910;8.352;2023-02-28T18:54:52;19.47;;;10.50;;
21128;SDS011;10722;51.910;8.352;2023-02-28T18:57:38;23.17;;;10.60;;
21128;SDS011;10722;51.910;8.352;2023-02-28T19:00:23;23.53;;;10.97;;
21128;SDS011;10722;51.910;8.352;2023-02-28T19:03:08;21.63;;;11.47;;
21128;SDS011;10722;51.910;8.352;2023-02-28T19:05:54;20.97;;;10.20;;
21128;SDS011;10722;51.910;8.352;2023-02-28T19:08:40;22.47;;;10.17;;
21128;SDS011;10722;51.910;8.352;2023-02-28T19:11:25;22.27;;;10.67;;
21128;SDS011;10722;51.910;8.352;2023-02-28T19:14:11;21.23;;;10.57;;
21128;SDS011;10722;51.910;8.352;2023-02-28T19:16:57;20.87;;;10.80;;
21128;SDS011;10722;51.910;8.352;2023-02-28T19:19:42;22.60;;;11.63;;
21128;SDS011;10722;51.910;8.352;2023-02-28T19:22:27;21.43;;;12.03;;